Time;durP1;ratioP1;P1;durP2;ratioP2;P2;SDS_P1;SDS_P2;PMS_P1;PMS_P2;Temp;Humidity;BMP_temperature;BMP_pressure;BME280_temperature;BME280_humidity;BME280_pressure;Samples;Min_cycle;Max_cycle;Signal;HPM_P1;HPM_P2
2021/03/28 00:03:02;;;;;;;14.55;4.65;;;12.00;92.90;;;;;;11946110;28;20048;-72
2021/03/28 00:09:07;;;;;;;14.38;5.50;;;12.00;93.00;;;;;;11950109;28;20396;-72
2021/03/28 00:14:58;;;;;;;15.50;3.88;;;11.90;93.20;;;;;;11946594;28;20044;-72
2021/03/28 00:20:45;;;;;;;9.00;2.83;;;12.00;93.30;;;;;;11951644;28;20088;-72
2021/03/28 00:26:34;;;;;;;14.88;2.92;;;12.00;93.40;;;;;;11951112;28;20523;-72
2021/03/28 00:32:23;;;;;;;8.85;2.90;;;11.90;93.50;;;;;;11942331;28;20359;-71
2021/03/28 00:38:13;;;;;;;13.18;3.38;;;11.80;93.50;;;;;;11943684;28;20063;-71
2021/03/28 00:44:10;;;;;;;10.52;3.03;;;11.70;93.70;;;;;;11959411;28;20042;-72
2021/03/28 00:50:26;;;;;;;10.57;3.13;;;11.60;94.20;;;;;;11948468;28;20530;-72
2021/03/28 00:56:18;;;;;;;13.68;2.85;;;11.50;93.70;;;;;;11946920;28;20041;-72
2021/03/28 01:02:26;;;;;;;12.10;3.53;;;11.40;93.50;;;;;;11945031;28;20038;-71
2021/03/28 01:08:20;;;;;;;11.27;3.28;;;11.30;93.40;;;;;;11936918;28;20447;-71
2021/03/28 01:14:42;;;;;;;15.55;3.08;;;11.30;93.40;;;;;;11943666;28;20114;-71
2021/03/28 01:20:44;;;;;;;18.73;3.33;;;11.20;93.40;;;;;;11757324;28;20055;-72
2021/03/28 01:26:52;;;;;;;10.38;2.80;;;11.10;93.20;;;;;;11760987;28;20134;-72
2021/03/28 01:32:43;;;;;;;8.82;2.90;;;11.00;93.30;;;;;;11742787;28;20051;-72
2021/03/28 01:38:34;;;;;;;8.73;2.65;;;11.00;93.40;;;;;;11758591;28;20062;-73
2021/03/28 01:44:32;;;;;;;11.73;2.75;;;11.00;93.30;;;;;;11754527;28;20047;-72
2021/03/28 01:50:29;;;;;;;14.05;3.53;;;11.00;93.20;;;;;;11770518;28;20050;-72
2021/03/28 01:56:25;;;;;;;13.43;3.30;;;10.90;93.20;;;;;;11948677;28;20417;-71
2021/03/28 02:02:32;;;;;;;11.45;3.10;;;10.80;93.60;;;;;;11941419;28;20052;-71
2021/03/28 02:08:26;;;;;;;12.90;4.05;;;10.70;93.30;;;;;;11941547;28;20147;-72
2021/03/28 02:14:38;;;;;;;16.20;4.15;;;10.70;93.50;;;;;;11940253;28;20049;-77
2021/03/28 02:20:35;;;;;;;16.45;3.70;;;10.70;93.40;;;;;;11807201;28;20062;-78
2021/03/28 02:26:31;;;;;;;18.42;4.43;;;10.70;93.40;;;;;;11808444;28;20410;-78
2021/03/28 02:32:43;;;;;;;9.77;3.33;;;10.60;93.50;;;;;;11811498;28;20111;-78
2021/03/28 02:39:06;;;;;;;12.55;3.33;;;10.50;93.50;;;;;;11677910;29;20104;-77
2021/03/28 02:45:00;;;;;;;11.60;2.75;;;10.50;93.40;;;;;;11662898;29;20060;-77
2021/03/28 02:51:26;;;;;;;10.20;3.28;;;10.50;93.60;;;;;;11680111;29;20080;-78
2021/03/28 02:57:46;;;;;;;17.08;3.13;;;10.40;93.20;;;;;;11636206;29;20642;-77
2021/03/28 03:04:04;;;;;;;11.65;3.17;;;10.30;93.20;;;;;;11674029;29;20063;-76
2021/03/28 03:10:27;;;;;;;11.10;3.10;;;10.30;93.30;;;;;;11670168;29;20063;-78
2021/03/28 03:16:24;;;;;;;10.68;2.80;;;10.20;93.00;;;;;;11829294;28;20130;-77
2021/03/28 03:22:47;;;;;;;12.38;2.90;;;10.10;93.40;;;;;;11843272;28;20166;-77
2021/03/28 03:29:03;;;;;;;15.90;3.77;;;10.10;93.10;;;;;;11851818;28;20145;-78
2021/03/28 03:35:05;;;;;;;15.68;5.38;;;10.00;93.30;;;;;;11951308;28;20037;-77
2021/03/28 03:41:18;;;;;;;15.07;4.00;;;10.00;93.50;;;;;;11953018;28;20049;-78
2021/03/28 03:47:17;;;;;;;17.73;4.50;;;9.90;93.50;;;;;;11944905;28;20057;-77
2021/03/28 03:53:14;;;;;;;12.68;4.45;;;9.90;93.40;;;;;;11943649;28;20017;-76
2021/03/28 03:59:09;;;;;;;12.60;3.38;;;9.90;93.40;;;;;;11949699;28;20519;-77
2021/03/28 04:05:16;;;;;;;9.20;3.30;;;9.80;93.10;;;;;;11946573;28;20037;-78
2021/03/28 04:11:14;;;;;;;13.05;3.33;;;9.70;93.20;;;;;;11946725;28;20077;-76
2021/03/28 04:17:21;;;;;;;14.20;3.50;;;9.70;93.40;;;;;;11944563;28;20045;-77
2021/03/28 04:23:29;;;;;;;11.43;3.22;;;9.60;93.00;;;;;;11939567;28;20049;-76
2021/03/28 04:29:17;;;;;;;14.07;3.28;;;9.50;93.40;;;;;;11942172;28;20045;-76
2021/03/28 04:35:32;;;;;;;11.98;3.25;;;9.40;93.70;;;;;;11939387;28;20676;-71
2021/03/28 04:41:39;;;;;;;11.98;3.13;;;9.40;93.60;;;;;;11941907;28;20720;-72
2021/03/28 04:47:53;;;;;;;14.10;3.95;;;9.50;93.30;;;;;;11944876;28;20034;-72
2021/03/28 04:54:19;;;;;;;10.73;4.15;;;9.40;93.20;;;;;;11940646;28;20041;-71
2021/03/28 05:00:51;;;;;;;14.20;3.58;;;9.40;93.60;;;;;;11939829;28;20044;-72
2021/03/28 05:07:12;;;;;;;14.88;3.53;;;9.40;93.50;;;;;;11805406;28;20051;-72
2021/03/28 05:13:30;;;;;;;11.38;3.85;;;9.40;93.20;;;;;;11789635;28;20042;-72
2021/03/28 05:19:52;;;;;;;12.48;3.72;;;9.40;93.20;;;;;;11810020;28;20062;-72
2021/03/28 05:26:29;;;;;;;14.18;3.67;;;9.30;93.30;;;;;;11811396;28;20054;-73
2021/03/28 05:32:52;;;;;;;14.00;4.03;;;9.20;92.80;;;;;;11700902;29;20047;-72
2021/03/28 05:39:01;;;;;;;14.67;5.17;;;9.20;93.10;;;;;;11701426;28;20059;-72
2021/03/28 05:45:23;;;;;;;17.70;4.25;;;9.20;93.10;;;;;;11794628;28;20167;-73
2021/03/28 05:51:30;;;;;;;12.43;3.95;;;9.20;93.10;;;;;;11795126;28;20059;-71
2021/03/28 05:57:40;;;;;;;10.23;3.53;;;9.10;93.10;;;;;;11801017;28;20047;-72
2021/03/28 06:04:06;;;;;;;17.05;4.53;;;9.10;93.30;;;;;;11942781;28;20131;-71
2021/03/28 06:10:24;;;;;;;11.60;3.53;;;9.10;93.50;;;;;;11949191;28;20070;-72
2021/03/28 06:16:22;;;;;;;14.18;3.72;;;9.20;93.30;;;;;;11762440;28;20039;-72
2021/03/28 06:22:48;;;;;;;12.90;3.40;;;9.20;93.20;;;;;;11764485;28;20059;-72
2021/03/28 06:29:12;;;;;;;14.82;4.43;;;9.20;93.20;;;;;;11757017;28;20051;-71
2021/03/28 06:35:41;;;;;;;15.60;4.30;;;9.30;93.20;;;;;;11765914;28;20047;-71
2021/03/28 06:42:09;;;;;;;14.45;4.00;;;9.30;93.40;;;;;;11761652;28;20050;-72
2021/03/28 06:48:27;;;;;;;11.13;4.32;;;9.50;93.40;;;;;;11765219;28;20134;-73
2021/03/28 06:54:46;;;;;;;16.67;5.07;;;9.60;93.50;;;;;;11942154;28;20045;-71
2021/03/28 07:01:12;;;;;;;14.07;4.85;;;9.60;93.80;;;;;;11945250;28;20033;-71
2021/03/28 07:07:10;;;;;;;14.80;4.32;;;9.60;93.90;;;;;;11945092;28;20050;-71
2021/03/28 07:13:32;;;;;;;13.52;4.28;;;9.80;94.20;;;;;;11942946;28;20041;-71
2021/03/28 07:19:55;;;;;;;18.73;4.68;;;10.00;94.30;;;;;;11946552;28;20061;-71
2021/03/28 07:25:50;;;;;;;17.25;4.65;;;10.20;94.30;;;;;;11949396;28;20422;-72
2021/03/28 07:32:03;;;;;;;22.02;5.72;;;10.40;94.50;;;;;;11952667;28;20049;-73
2021/03/28 07:38:35;;;;;;;21.73;6.13;;;10.60;94.60;;;;;;11952636;28;20041;-71
2021/03/28 07:44:59;;;;;;;18.33;5.45;;;10.80;94.70;;;;;;11802168;28;20082;-72
2021/03/28 07:51:18;;;;;;;15.93;4.53;;;11.10;94.80;;;;;;11801399;28;20066;-72
2021/03/28 07:57:37;;;;;;;21.35;4.78;;;11.30;94.50;;;;;;11805922;28;20054;-72
2021/03/28 08:03:50;;;;;;;15.45;3.83;;;11.50;94.20;;;;;;11807443;28;20054;-72
2021/03/28 08:09:55;;;;;;;17.73;4.23;;;11.70;94.10;;;;;;11790661;28;20042;-72
2021/03/28 08:15:53;;;;;;;14.73;3.75;;;11.80;93.70;;;;;;11856772;28;20053;-72
2021/03/28 08:21:43;;;;;;;16.83;3.22;;;11.90;93.40;;;;;;11949325;28;20033;-72
2021/03/28 08:27:55;;;;;;;11.88;3.03;;;12.00;92.60;;;;;;11945178;28;20559;-72
2021/03/28 08:34:13;;;;;;;7.63;2.80;;;12.10;92.30;;;;;;11946005;28;20033;-72
2021/03/28 08:40:31;;;;;;;13.90;3.08;;;11.90;91.20;;;;;;11950511;28;20050;-73
2021/03/28 08:46:41;;;;;;;238.57;110.25;;;11.90;90.90;;;;;;11949377;28;20029;-73
2021/03/28 08:53:14;;;;;;;12.88;2.85;;;12.00;91.30;;;;;;11944509;28;20076;-72
2021/03/28 08:59:14;;;;;;;9.95;3.00;;;12.20;89.80;;;;;;11940012;28;20061;-71
2021/03/28 09:05:16;;;;;;;10.07;2.30;;;12.30;89.70;;;;;;11941303;28;20045;-74
2021/03/28 09:11:42;;;;;;;7.82;2.70;;;12.30;88.60;;;;;;11968048;28;20049;-75
2021/03/28 09:17:37;;;;;;;10.25;2.38;;;12.60;88.40;;;;;;11952268;28;20072;-73
2021/03/28 09:23:40;;;;;;;14.52;3.00;;;12.60;85.70;;;;;;11953385;28;20404;-74
2021/03/28 09:29:42;;;;;;;8.82;2.15;;;12.80;86.50;;;;;;11962801;28;20042;-74
2021/03/28 09:36:02;;;;;;;10.38;2.15;;;12.80;84.50;;;;;;11952734;28;20714;-74
2021/03/28 09:42:20;;;;;;;11.75;2.72;;;12.90;83.10;;;;;;11957135;28;20428;-74
2021/03/28 09:48:45;;;;;;;11.05;2.03;;;12.70;84.20;;;;;;11952500;28;20450;-74
2021/03/28 09:55:17;;;;;;;11.32;2.10;;;12.80;82.60;;;;;;11954534;28;20132;-74
2021/03/28 10:01:22;;;;;;;7.60;1.92;;;13.00;81.20;;;;;;11950873;28;20045;-74
2021/03/28 10:07:09;;;;;;;6.70;1.95;;;12.80;80.50;;;;;;11954369;28;20033;-75
2021/03/28 10:18:19;;;;;;;10.57;2.45;;;12.90;79.50;;;;;;12025268;27;57267;-76
2021/03/28 10:24:17;;;;;;;8.57;3.47;;;13.30;79.90;;;;;;12031930;28;20041;-75
2021/03/28 10:30:17;;;;;;;12.82;2.60;;;13.40;78.90;;;;;;12037027;28;20044;-75
2021/03/28 10:36:23;;;;;;;9.25;2.47;;;13.40;78.50;;;;;;12033397;28;20041;-75
2021/03/28 10:42:29;;;;;;;17.70;2.95;;;13.60;79.00;;;;;;11994131;28;20052;-75
2021/03/28 10:48:54;;;;;;;10.65;2.42;;;13.50;79.20;;;;;;11969222;28;20132;-75
2021/03/28 10:55:20;;;;;;;7.85;2.30;;;13.90;78.10;;;;;;12019312;28;20045;-75
2021/03/28 11:01:52;;;;;;;20.23;5.82;;;13.90;77.60;;;;;;12026107;28;20053;-74
2021/03/28 11:08:07;;;;;;;10.25;2.00;;;14.20;77.50;;;;;;12014040;28;20083;-73
2021/03/28 11:14:29;;;;;;;8.43;2.03;;;14.20;76.50;;;;;;12028685;28;20984;-74
2021/03/28 11:20:34;;;;;;;9.85;2.00;;;14.30;76.90;;;;;;12030667;28;20202;-73
2021/03/28 11:27:05;;;;;;;13.02;2.45;;;14.50;76.80;;;;;;12012697;28;20091;-74
2021/03/28 11:32:58;;;;;;;15.48;2.40;;;14.70;76.40;;;;;;11997781;28;20053;-74
2021/03/28 11:39:23;;;;;;;10.35;2.00;;;14.70;76.20;;;;;;11995074;28;20060;-72
2021/03/28 11:45:31;;;;;;;10.00;2.00;;;14.80;74.20;;;;;;11996748;28;20527;-73
2021/03/28 11:51:24;;;;;;;12.02;2.95;;;14.80;75.90;;;;;;11996906;28;20530;-73
2021/03/28 11:57:27;;;;;;;6.40;2.30;;;14.90;73.40;;;;;;11992467;28;20052;-73
2021/03/28 12:03:36;;;;;;;10.38;2.38;;;15.00;72.90;;;;;;11981983;28;20064;-73
2021/03/28 12:09:30;;;;;;;9.30;2.42;;;15.10;74.30;;;;;;11989161;28;20061;-72
2021/03/28 12:15:35;;;;;;;;;;;15.10;73.00;;;;;;11991382;28;20060;-73
2021/03/28 12:21:38;;;;;;;7.47;1.83;;;15.40;72.10;;;;;;11989079;28;19936;-73
2021/03/28 12:27:32;;;;;;;9.38;1.90;;;15.70;71.90;;;;;;11985778;28;20056;-77
2021/03/28 12:33:20;;;;;;;9.27;1.98;;;15.90;71.50;;;;;;11984310;28;20045;-72
2021/03/28 12:39:18;;;;;;;7.95;1.90;;;16.00;69.80;;;;;;11989542;28;20049;-72
2021/03/28 12:45:31;;;;;;;4.75;1.67;;;15.90;69.50;;;;;;11992634;28;20041;-75
2021/03/28 12:51:22;;;;;;;9.60;1.73;;;16.20;68.60;;;;;;11992109;28;20158;-74
2021/03/28 12:57:26;;;;;;;9.85;1.80;;;16.00;67.10;;;;;;11981680;28;20049;-75
2021/03/28 13:03:20;;;;;;;6.13;1.77;;;16.20;67.40;;;;;;11986171;28;20503;-74
2021/03/28 13:09:33;;;;;;;6.93;1.92;;;16.40;66.90;;;;;;11985777;28;20061;-74
2021/03/28 13:15:27;;;;;;;8.10;1.67;;;16.70;65.30;;;;;;11985881;28;20139;-72
2021/03/28 13:21:20;;;;;;;9.18;2.42;;;16.70;64.40;;;;;;11983713;28;20068;-73
2021/03/28 13:27:12;;;;;;;11.60;1.77;;;16.70;64.00;;;;;;11979883;28;20491;-75
2021/03/28 13:33:01;;;;;;;14.07;2.08;;;16.90;63.30;;;;;;11983248;28;20071;-72
2021/03/28 13:39:14;;;;;;;10.63;2.35;;;16.80;64.30;;;;;;11981622;28;20431;-74
2021/03/28 13:45:06;;;;;;;5.97;1.65;;;17.00;63.40;;;;;;11980149;28;20045;-78
2021/03/28 13:50:57;;;;;;;9.00;1.92;;;17.30;61.60;;;;;;11988419;28;20048;-76
2021/03/28 13:56:48;;;;;;;10.10;2.00;;;17.50;61.70;;;;;;11984862;28;20143;-77
2021/03/28 14:02:39;;;;;;;6.63;1.60;;;17.70;61.30;;;;;;11992312;28;20045;-81
2021/03/28 14:08:28;;;;;;;7.10;1.90;;;17.70;60.00;;;;;;11992791;28;20631;-79
2021/03/28 14:14:19;;;;;;;8.00;1.85;;;17.80;59.90;;;;;;11993152;28;20056;-83
2021/03/28 14:20:15;;;;;;;23.33;11.35;;;17.90;60.70;;;;;;11990179;28;20063;-81
2021/03/28 14:26:25;;;;;;;12.05;3.15;;;18.20;59.60;;;;;;11988584;28;20081;-80
2021/03/28 14:32:24;;;;;;;6.43;1.80;;;18.10;61.50;;;;;;11991905;28;20064;-82
2021/03/28 14:38:58;;;;;;;12.35;2.20;;;18.00;60.60;;;;;;11989568;28;20048;-79
2021/03/28 14:44:58;;;;;;;7.63;1.80;;;17.90;61.70;;;;;;11994492;28;20068;-80
2021/03/28 14:50:53;;;;;;;6.93;1.73;;;18.20;61.50;;;;;;11995385;28;20704;-80
2021/03/28 14:56:43;;;;;;;11.80;1.90;;;18.30;58.60;;;;;;11987946;28;20045;-81
2021/03/28 15:08:55;;;;;;;8.50;1.98;;;18.40;59.50;;;;;;11998013;28;21340;-79
2021/03/28 15:14:53;;;;;;;6.63;1.92;;;18.50;59.80;;;;;;11999396;28;20409;-79
2021/03/28 15:20:46;;;;;;;252.50;136.70;;;18.60;59.60;;;;;;11998876;28;20087;-76
2021/03/28 15:26:40;;;;;;;10.77;2.47;;;18.70;59.10;;;;;;11997436;28;20065;-75
2021/03/28 15:32:42;;;;;;;5.55;2.00;;;18.80;58.30;;;;;;11996560;28;20067;-76
2021/03/28 15:38:57;;;;;;;4.55;1.65;;;18.80;58.50;;;;;;11994721;28;20048;-78
2021/03/28 15:45:16;;;;;;;8.60;1.67;;;18.70;58.40;;;;;;11998490;28;20503;-78
2021/03/28 15:51:18;;;;;;;8.98;1.77;;;18.50;58.40;;;;;;11991591;28;20103;-76
2021/03/28 15:57:19;;;;;;;8.27;1.98;;;18.60;58.40;;;;;;11990141;28;20059;-75
2021/03/28 16:03:25;;;;;;;6.78;1.75;;;18.70;58.60;;;;;;11987549;28;20791;-76
2021/03/28 16:09:32;;;;;;;6.97;1.75;;;18.60;58.90;;;;;;11991070;28;20045;-76
2021/03/28 16:15:26;;;;;;;9.98;1.98;;;18.60;58.80;;;;;;11991993;28;20061;-77
2021/03/28 16:21:43;;;;;;;8.05;1.75;;;18.90;57.80;;;;;;11991741;28;20573;-77
2021/03/28 16:27:35;;;;;;;4.68;1.70;;;19.10;58.40;;;;;;11974142;28;20056;-77
2021/03/28 16:34:14;;;;;;;7.20;1.70;;;19.10;57.70;;;;;;11990888;28;20053;-77
2021/03/28 16:40:04;;;;;;;9.07;1.80;;;19.00;57.30;;;;;;11985809;28;20049;-73
2021/03/28 16:45:53;;;;;;;6.90;1.75;;;18.90;57.70;;;;;;11993396;28;20045;-74
2021/03/28 16:51:46;;;;;;;7.80;1.75;;;18.80;58.10;;;;;;11988212;28;20068;-76
2021/03/28 16:57:34;;;;;;;8.88;2.00;;;19.30;57.50;;;;;;11985937;28;20052;-76
2021/03/28 17:03:23;;;;;;;6.93;1.88;;;20.50;55.40;;;;;;11985966;28;20061;-75
2021/03/28 17:11:39;;;;;;;6.95;1.90;;;20.90;55.20;;;;;;12095176;27;20372;-76
2021/03/28 17:17:30;;;;;;;8.15;1.90;;;20.80;54.60;;;;;;12046685;28;20106;-75
2021/03/28 17:23:42;;;;;;;8.13;1.73;;;20.60;54.90;;;;;;12018387;28;20068;-76
2021/03/28 17:29:50;;;;;;;6.07;1.50;;;20.60;54.50;;;;;;12018413;28;20064;-76
2021/03/28 17:35:36;;;;;;;6.43;1.52;;;20.00;55.20;;;;;;12021817;28;20049;-75
2021/03/28 17:41:41;;;;;;;8.35;2.17;;;19.30;56.90;;;;;;12021191;28;20057;-75
2021/03/28 17:47:52;;;;;;;7.68;1.55;;;18.60;59.00;;;;;;12021856;28;20052;-75
2021/03/28 17:53:39;;;;;;;11.18;2.40;;;18.20;62.10;;;;;;12019829;28;20053;-75
2021/03/28 17:59:36;;;;;;;9.73;2.60;;;17.80;63.90;;;;;;12018115;28;20103;-74
2021/03/28 18:05:26;;;;;;;22.30;9.20;;;17.50;66.30;;;;;;12020568;28;20048;-75
2021/03/28 18:11:21;;;;;;;5.75;1.90;;;17.20;66.90;;;;;;12013550;28;20072;-77
2021/03/28 18:17:13;;;;;;;13.55;2.30;;;16.80;68.40;;;;;;12017744;28;20049;-77
2021/03/28 18:23:04;;;;;;;4.50;2.05;;;16.60;69.60;;;;;;11989923;28;20060;-77
2021/03/28 18:28:50;;;;;;;9.90;2.80;;;16.30;70.60;;;;;;11992465;28;20526;-78
2021/03/28 18:34:40;;;;;;;10.65;2.50;;;16.10;71.50;;;;;;11985887;28;20057;-77
2021/03/28 18:40:34;;;;;;;7.82;2.20;;;15.90;72.00;;;;;;11986321;28;20052;-78
2021/03/28 18:46:22;;;;;;;9.57;2.20;;;15.70;72.40;;;;;;11987772;28;20049;-76
2021/03/28 18:52:14;;;;;;;10.10;2.95;;;15.50;73.00;;;;;;11987944;28;20115;-77
2021/03/28 18:58:01;;;;;;;13.05;2.65;;;15.40;73.60;;;;;;11984689;28;20049;-75
2021/03/28 19:03:56;;;;;;;9.00;2.40;;;15.30;74.20;;;;;;11981841;28;20060;-74
2021/03/28 19:09:45;;;;;;;13.02;3.25;;;15.20;74.80;;;;;;11980941;28;20052;-79
2021/03/28 19:15:37;;;;;;;9.10;2.60;;;15.10;75.30;;;;;;11987207;28;20083;-77
2021/03/28 19:21:26;;;;;;;10.32;2.97;;;15.00;75.20;;;;;;11984931;28;20052;-76
2021/03/28 19:27:15;;;;;;;8.43;2.97;;;14.90;75.60;;;;;;11984314;28;20132;-75
2021/03/28 19:33:04;;;;;;;10.25;3.63;;;14.80;76.00;;;;;;11983873;28;20060;-75
2021/03/28 19:38:50;;;;;;;8.73;2.78;;;14.80;76.80;;;;;;11983992;28;20052;-75
2021/03/28 19:44:43;;;;;;;10.70;2.53;;;14.80;76.70;;;;;;11985638;28;20052;-74
2021/03/28 19:50:34;;;;;;;7.57;2.80;;;14.70;77.20;;;;;;11985462;28;20050;-73
2021/03/28 19:56:21;;;;;;;12.68;2.55;;;14.60;77.70;;;;;;11987823;28;20053;-75
2021/03/28 20:02:13;;;;;;;5.90;2.30;;;14.50;77.90;;;;;;11983214;28;20045;-74
2021/03/28 20:08:22;;;;;;;13.93;3.50;;;14.40;78.40;;;;;;11980383;28;20049;-74
2021/03/28 20:14:10;;;;;;;6.38;2.13;;;14.40;78.60;;;;;;11981778;28;22272;-75
2021/03/28 20:19:56;;;;;;;10.05;2.72;;;14.30;78.80;;;;;;11984403;28;20095;-74
2021/03/28 20:25:44;;;;;;;10.70;2.72;;;14.30;78.90;;;;;;11977668;28;20385;-75
2021/03/28 20:31:35;;;;;;;8.80;2.83;;;14.20;79.20;;;;;;11977967;28;20072;-74
2021/03/28 20:37:25;;;;;;;13.50;3.53;;;14.20;79.50;;;;;;11979082;28;20061;-74
2021/03/28 20:43:14;;;;;;;8.13;2.95;;;14.00;79.60;;;;;;11976820;28;20057;-76
2021/03/28 20:49:01;;;;;;;11.63;4.05;;;14.00;79.60;;;;;;11981303;28;20413;-77
2021/03/28 20:54:48;;;;;;;8.35;3.10;;;13.90;80.20;;;;;;11987198;28;20135;-76
2021/03/28 21:00:36;;;;;;;9.50;4.40;;;13.90;80.50;;;;;;11981391;28;20049;-77
2021/03/28 21:06:23;;;;;;;12.18;4.53;;;13.80;80.60;;;;;;11982076;28;20068;-76
2021/03/28 21:12:11;;;;;;;8.20;3.67;;;13.80;81.10;;;;;;11980188;28;20087;-76
2021/03/28 21:18:04;;;;;;;11.05;3.00;;;13.70;81.40;;;;;;11981144;28;20052;-76
2021/03/28 21:23:53;;;;;;;9.35;3.25;;;13.60;81.30;;;;;;11983008;28;20052;-76
2021/03/28 21:29:40;;;;;;;9.02;3.83;;;13.60;81.20;;;;;;11986442;28;20044;-76
2021/03/28 21:35:32;;;;;;;14.20;4.72;;;13.60;81.50;;;;;;11983350;28;20502;-76
2021/03/28 21:41:31;;;;;;;19.67;4.90;;;13.50;81.70;;;;;;11985933;28;20045;-76
2021/03/28 21:47:22;;;;;;;13.10;4.60;;;13.50;81.90;;;;;;11986771;28;20048;-77
2021/03/28 21:53:18;;;;;;;13.40;4.25;;;13.40;82.10;;;;;;12001195;28;20110;-77
2021/03/28 21:59:06;;;;;;;9.77;4.13;;;13.40;82.20;;;;;;12005170;28;20048;-77
2021/03/28 22:04:53;;;;;;;14.00;6.13;;;13.30;82.20;;;;;;12003071;28;20059;-77
2021/03/28 22:10:45;;;;;;;10.07;3.50;;;13.30;82.70;;;;;;12003286;28;20052;-74
2021/03/28 22:16:36;;;;;;;11.20;3.13;;;13.10;82.90;;;;;;11986908;28;20506;-75
2021/03/28 22:22:31;;;;;;;13.43;4.10;;;13.10;82.70;;;;;;11991153;28;20053;-77
2021/03/28 22:28:19;;;;;;;9.60;3.83;;;13.00;83.20;;;;;;12010927;28;20045;-76
2021/03/28 22:34:07;;;;;;;13.45;4.35;;;13.00;83.00;;;;;;12002165;28;20143;-76
2021/03/28 22:39:55;;;;;;;18.30;4.65;;;13.00;83.60;;;;;;11996256;28;20048;-77
2021/03/28 22:45:48;;;;;;;11.90;4.50;;;12.90;83.70;;;;;;12000316;28;20068;-77
2021/03/28 22:51:35;;;;;;;9.33;4.37;;;12.80;84.00;;;;;;12001707;28;20048;-77
2021/03/28 22:57:24;;;;;;;8.35;4.15;;;12.70;84.70;;;;;;12002364;28;20057;-76
2021/03/28 23:03:14;;;;;;;10.02;4.35;;;12.70;84.60;;;;;;11998003;28;20417;-77
2021/03/28 23:09:05;;;;;;;10.15;3.75;;;12.60;84.40;;;;;;12005910;28;20072;-77
2021/03/28 23:14:52;;;;;;;11.55;3.92;;;12.50;84.40;;;;;;12000883;28;20053;-78
2021/03/28 23:20:42;;;;;;;12.65;3.80;;;12.50;84.50;;;;;;11996607;28;20053;-77
2021/03/28 23:26:30;;;;;;;10.38;3.97;;;12.50;84.50;;;;;;11997854;28;20044;-77
2021/03/28 23:32:16;;;;;;;9.75;3.38;;;12.40;84.90;;;;;;12001171;28;20048;-77
2021/03/28 23:38:04;;;;;;;13.50;3.67;;;12.40;84.80;;;;;;11996124;28;20041;-77
2021/03/28 23:43:54;;;;;;;9.68;3.95;;;12.40;84.60;;;;;;11998450;28;20071;-77
2021/03/28 23:49:47;;;;;;;8.02;3.40;;;12.30;84.90;;;;;;12001409;28;20040;-77
2021/03/28 23:55:34;;;;;;;8.50;3.25;;;12.20;84.90;;;;;;11996022;28;20056;-77
